Terminal Aerodrome Forecast
Issued by NWS

Home | Current Version | Previous Version | Text Only | Print | Product List | Glossary On
Versions: 1 2 3 4 5 6 7 8 9 10 11 12 13 14 15 16 17 18 19 20 21
000
FTUS43 KPAH 181500 AAA
TAFCGI
TAF AMD
KCGI 181514Z 1815/1912 00000KT 6SM BR BKN009
     FM181700 29003KT P6SM SCT015 BKN050
     FM190000 00000KT P6SM SCT035
     FM190600 00000KT 3SM BR SCT006=

USA.gov is the U.S. government's official web portal to all federal, state and local government web resources and services.